Investigator — VLMJ — position and weather

sailwx.info

Track history (hours):
 
Tides and Currents Weather Stations Pressure Air Temp Water Temp Dewpoint Dewpoint Depression Visibility Wind Speed Wind Dir Waves Ship Positions

Oceanographic research ship Investigator (Australia)

Last reported at 2019-Jul-20 15:26 UTC. Time now 2019-Jul-22 13:46 UTC.
Position N 01°15' E 104°11'.

Length 93 m; draft 7 m.

Type: Other ship. MMSI: 503791000.

Date/timePositionNaut miles runAvg speedWind from/ knotsBaromVisibWave heightAir tempDewpointWater temp
2019-Jul-20 15:26N 01°15' E 104°11'511.4
2019-Jul-20 15:00N 01°15' E 104°06'510.8
2019-Jul-20 14:30N 01°14' E 104°01'5 9.7
2019-Jul-20 14:01N 01°15' E 103°56'3 5.8
2019-Jul-20 13:29N 01°17' E 103°54'0 0.1
2019-Jul-20 12:56N 01°17' E 103°54'0 0.0
2019-Jul-20 12:29N 01°17' E 103°54'0 0.0
2019-Jul-20 11:59N 01°17' E 103°54'0 0.0
2019-Jul-20 11:29N 01°17' E 103°54'0 0.0
2019-Jul-20 10:59N 01°17' E 103°54'0 0.0
2019-Jul-20 10:23N 01°17' E 103°54'0 0.1
2019-Jul-20 09:59N 01°17' E 103°54'0 0.0
2019-Jul-20 09:29N 01°17' E 103°54'0 0.0
2019-Jul-20 08:56N 01°17' E 103°54'0 0.0
2019-Jul-20 08:29N 01°17' E 103°54'0 0.0
2019-Jul-20 07:59N 01°17' E 103°54'0 0.0
2019-Jul-20 07:29N 01°17' E 103°54'0 0.0
2019-Jul-20 06:59N 01°17' E 103°54'0 0.0
2019-Jul-20 06:29N 01°17' E 103°54'0 0.0
2019-Jul-20 05:56N 01°17' E 103°54'0 0.0
2019-Jul-20 05:29N 01°17' E 103°54'0 0.0
2019-Jul-20 04:59N 01°17' E 103°54'0 0.1
2019-Jul-20 04:29N 01°17' E 103°54'0 0.0
2019-Jul-20 03:59N 01°17' E 103°54'0 0.1
2019-Jul-20 03:29N 01°17' E 103°54'0 0.0
2019-Jul-20 02:59N 01°17' E 103°54'0 1.0
2019-Jul-20 02:30N 01°16' E 103°54'4 7.4
2019-Jul-20 02:00N 01°16' E 103°58'611.0
2019-Jul-20 01:29N 01°17' E 104°03'4 7.4
2019-Jul-20 01:00N 01°21' E 104°04'5 9.9
2019-Jul-20 00:30N 01°24' E 103°60'4 8.3
2019-Jul-20 00:00N 01°25' E 103°56'6 8.9
2019-Jul-19 23:22N 01°28' E 103°51'  
Track history (hours):
 
Tides and Currents Weather Stations Pressure Air Temp Water Temp Dewpoint Dewpoint Depression Visibility Wind Speed Wind Dir Waves Ship Positions

Oceanographic research ship Investigator (Australia)

Last reported at 2019-Jul-20 15:26 UTC. Time now 2019-Jul-22 13:46 UTC.
Position N 01°15' E 104°11'.

Length 93 m; draft 7 m.

Type: Other ship. MMSI: 503791000.

Date/timePositionNaut miles runAvg speedWind from/ knotsBaromVisibWave heightAir tempDewpointWater temp
2019-Jul-20 15:26N 01°15' E 104°11'511.4
2019-Jul-20 15:00N 01°15' E 104°06'510.8
2019-Jul-20 14:30N 01°14' E 104°01'5 9.7
2019-Jul-20 14:01N 01°15' E 103°56'3 5.8
2019-Jul-20 13:29N 01°17' E 103°54'0 0.1
2019-Jul-20 12:56N 01°17' E 103°54'0 0.0
2019-Jul-20 12:29N 01°17' E 103°54'0 0.0
2019-Jul-20 11:59N 01°17' E 103°54'0 0.0
2019-Jul-20 11:29N 01°17' E 103°54'0 0.0
2019-Jul-20 10:59N 01°17' E 103°54'0 0.0
2019-Jul-20 10:23N 01°17' E 103°54'0 0.1
2019-Jul-20 09:59N 01°17' E 103°54'0 0.0
2019-Jul-20 09:29N 01°17' E 103°54'0 0.0
2019-Jul-20 08:56N 01°17' E 103°54'0 0.0
2019-Jul-20 08:29N 01°17' E 103°54'0 0.0
2019-Jul-20 07:59N 01°17' E 103°54'0 0.0
2019-Jul-20 07:29N 01°17' E 103°54'0 0.0
2019-Jul-20 06:59N 01°17' E 103°54'0 0.0
2019-Jul-20 06:29N 01°17' E 103°54'0 0.0
2019-Jul-20 05:56N 01°17' E 103°54'0 0.0
2019-Jul-20 05:29N 01°17' E 103°54'0 0.0
2019-Jul-20 04:59N 01°17' E 103°54'0 0.1
2019-Jul-20 04:29N 01°17' E 103°54'0 0.0
2019-Jul-20 03:59N 01°17' E 103°54'0 0.1
2019-Jul-20 03:29N 01°17' E 103°54'0 0.0
2019-Jul-20 02:59N 01°17' E 103°54'0 1.0
2019-Jul-20 02:30N 01°16' E 103°54'4 7.4
2019-Jul-20 02:00N 01°16' E 103°58'611.0
2019-Jul-20 01:29N 01°17' E 104°03'4 7.4
2019-Jul-20 01:00N 01°21' E 104°04'5 9.9
2019-Jul-20 00:30N 01°24' E 103°60'4 8.3
2019-Jul-20 00:00N 01°25' E 103°56'6 8.9
2019-Jul-19 23:22N 01°28' E 103°51'  

Dump ship's entire track history